nikon.com alexa rank chart, nikon.com alexa rank daily changes

nikon.com alexa rank chart, nikon.com alexa rank daily changes

nikon.com
Actual rank:
31 826

RANK HISTORY

Date Rank Diff
2018/04/19 31 826 -227
2018/04/18 32 053 -1 353
2018/04/17 33 406 +3 258
2018/04/16 30 148 +5 619
2018/04/15 24 529 -9 225
2018/04/14 33 754 -4 802
2018/04/13 38 556 +10 826
2018/04/12 27 730 -5 498
2018/04/11 33 228 -19 739
2018/04/10 52 967 +8 534
2018/04/09 44 433 +7 664
2018/04/08 36 769 -4 616
2018/04/07 41 385 +1 389
2018/04/06 39 996 +10 079
2018/04/05 29 917 +5 158
2018/04/04 24 759 -38 393
2018/04/03 63 152 +29 473
2018/04/02 33 679 +3 775
2018/04/01 29 904 +2 458
2018/03/31 27 446 -9 931
2018/03/30 37 377 +6 333
2018/03/29 31 044 -5 952
2018/03/28 36 996 +14 878
2018/03/27 22 118 -16 367
2018/03/26 38 485 +14 633
2018/03/25 23 852 -15 100
2018/03/24 38 952 -10 590
2018/03/23 49 542 +22 402
2018/03/22 27 140 -7 518
2018/03/21 34 658 +1 949
2018/03/20 32 709 +4 742
2018/03/19 27 967 +482
2018/03/18 27 485 -1 950
2018/03/17 29 435 -17 278
2018/03/16 46 713 +4 094
2018/03/15 42 619 +19 405
2018/03/14 23 214 -2 798
2018/03/13 26 012 -392
2018/03/12 26 404 -10 595
2018/03/11 36 999 -7 079
2018/03/10 44 078 +15 562
2018/03/09 28 516 -7 898
2018/03/08 36 414 +1 837
2018/03/07 34 577 -8 943
2018/03/06 43 520 +23 264
2018/03/05 20 256 -18 505
2018/03/04 38 761 +3 724
2018/03/03 35 037 -3 887
2018/03/02 38 924 +2 078
2018/03/01 36 846 +5 666
2018/02/28 31 180 +8 994
2018/02/27 22 186 -2 075
2018/02/26 24 261 -19 491
2018/02/25 43 752 +18 535
2018/02/24 25 217 -3 037
2018/02/23 28 254 -18 453
2018/02/22 46 707 +14 581
2018/02/21 32 126 +4 371
2018/02/20 27 755 -3 855
2018/02/19 31 610 -24 228
2018/02/18 55 838

WIDGET FOR YOUR SITE

DOMAINS WITH THE NEAREST RANK

Domain Rank
360tl.com 31 821
99lr.com 31 822
yueyuyy.com 31 823
hr-portal.ru 31 824
cti.gr 31 825
nikon.com 31 826
pacer.gov 31 827
myfeed2all.eu 31 828
aulaclic.es 31 829
number1victimofcrime.com 31 830
kartina.tv 31 831

DOMAINS WITH THE NEAREST RANK BY TLD .com

Domain Rank
njoyn.com 31 817
toytowngermany.com 31 818
360tl.com 31 821
99lr.com 31 822
yueyuyy.com 31 823
nikon.com 31 826
number1victimofcrime.com 31 830
math-salamanders.com 31 832
theinterviewguys.com 31 833
xvideo001.com 31 837
watan.com 31 838